createdAt,value
2018-06-18T00:00:09.901Z,19.77
2018-06-18T00:02:38.619Z,19.70
2018-06-18T00:05:09.482Z,19.70
2018-06-18T00:07:38.007Z,19.67
2018-06-18T00:10:07.006Z,19.61
2018-06-18T00:12:35.514Z,19.68
2018-06-18T00:15:04.252Z,19.76
2018-06-18T00:17:33.364Z,19.76
2018-06-18T00:20:03.561Z,19.77
2018-06-18T00:22:32.030Z,19.78
2018-06-18T00:25:01.027Z,19.74
2018-06-18T00:27:31.088Z,19.76
2018-06-18T00:29:59.545Z,19.74
2018-06-18T00:32:31.113Z,19.70
2018-06-18T00:34:59.721Z,19.63
2018-06-18T00:37:29.442Z,19.65
2018-06-18T00:39:57.926Z,19.65
2018-06-18T00:42:26.420Z,19.65
2018-06-18T00:44:55.321Z,19.69
2018-06-18T00:47:23.786Z,19.73
2018-06-18T00:49:59.154Z,19.63
2018-06-18T00:52:28.095Z,19.64
2018-06-18T00:54:56.648Z,19.68
2018-06-18T00:57:25.194Z,19.69
2018-06-18T00:59:54.058Z,19.70
2018-06-18T01:02:22.565Z,19.55
2018-06-18T01:04:51.335Z,19.51
2018-06-18T01:07:20.296Z,19.59
2018-06-18T01:09:48.778Z,19.61
2018-06-18T01:12:17.521Z,19.48
2018-06-18T01:14:46.429Z,19.37
2018-06-18T01:17:14.898Z,19.39
2018-06-18T01:19:43.445Z,19.41
2018-06-18T01:22:14.590Z,19.34
2018-06-18T01:24:48.698Z,19.36
2018-06-18T01:27:17.894Z,19.40
2018-06-18T01:29:46.438Z,19.40
2018-06-18T01:32:14.932Z,19.46
2018-06-18T01:34:50.342Z,19.54
2018-06-18T01:37:18.985Z,19.50
2018-06-18T01:39:47.510Z,19.46
2018-06-18T01:42:16.695Z,19.48
2018-06-18T01:44:45.167Z,19.50
2018-06-18T01:47:13.726Z,19.49
2018-06-18T01:49:42.710Z,19.51
2018-06-18T01:52:16.262Z,19.50
2018-06-18T01:54:44.806Z,19.52
2018-06-18T01:57:13.307Z,19.51
2018-06-18T01:59:42.066Z,19.54
2018-06-18T02:02:16.258Z,19.54
2018-06-18T02:04:44.769Z,19.40
2018-06-18T02:07:14.268Z,19.35
2018-06-18T02:09:42.883Z,19.38
2018-06-18T02:12:11.371Z,19.36
2018-06-18T02:14:41.358Z,19.38
2018-06-18T02:17:15.398Z,19.42
2018-06-18T02:19:43.887Z,19.39
2018-06-18T02:22:17.003Z,19.38
2018-06-18T02:24:45.520Z,19.38
2018-06-18T02:27:17.418Z,19.43
2018-06-18T02:29:52.046Z,19.46
2018-06-18T02:32:25.982Z,19.48
2018-06-18T02:35:00.068Z,19.46
2018-06-18T02:37:35.569Z,19.48
2018-06-18T02:42:44.612Z,19.42
2018-06-18T02:45:13.989Z,19.37
2018-06-18T02:47:42.454Z,19.32
2018-06-18T02:50:10.946Z,19.30
2018-06-18T02:52:39.932Z,19.15
2018-06-18T02:55:08.450Z,19.12
2018-06-18T02:57:38.848Z,19.12
2018-06-18T03:00:07.900Z,19.12
2018-06-18T03:02:36.407Z,19.05
2018-06-18T03:05:05.860Z,18.99
2018-06-18T03:07:34.718Z,18.94
2018-06-18T03:10:03.897Z,18.95
2018-06-18T03:12:32.431Z,18.93
2018-06-18T03:15:01.457Z,18.97
2018-06-18T03:17:30.270Z,19.01
2018-06-18T03:20:08.105Z,19.04
2018-06-18T03:22:42.171Z,19.04
2018-06-18T03:25:15.875Z,19.09
2018-06-18T03:27:53.046Z,19.07
2018-06-18T03:30:25.527Z,19.11
2018-06-18T03:32:54.014Z,19.08
2018-06-18T03:35:22.506Z,19.03
2018-06-18T03:37:52.306Z,19.07
2018-06-18T03:40:20.794Z,19.07
2018-06-18T03:42:49.268Z,19.10
2018-06-18T03:45:23.798Z,19.15
2018-06-18T03:47:57.498Z,19.12
2018-06-18T03:50:26.021Z,19.20
2018-06-18T03:52:55.554Z,19.19
2018-06-18T03:55:40.338Z,19.20
2018-06-18T03:58:09.734Z,19.22
2018-06-18T04:00:54.406Z,19.22
2018-06-18T04:06:07.371Z,19.29
2018-06-18T04:08:35.987Z,19.33
2018-06-18T04:11:09.826Z,19.35
2018-06-18T04:13:38.803Z,19.39
2018-06-18T04:16:07.398Z,19.43
2018-06-18T04:18:40.378Z,19.42
2018-06-18T04:21:09.494Z,19.44
2018-06-18T04:23:46.867Z,19.50
2018-06-18T04:26:15.413Z,19.46
2018-06-18T04:28:51.434Z,19.39
2018-06-18T04:31:19.997Z,19.35
2018-06-18T04:35:04.807Z,19.31
2018-06-18T04:37:35.578Z,19.33
2018-06-18T04:40:04.914Z,19.37
2018-06-18T04:42:39.474Z,19.35
2018-06-18T04:45:13.404Z,19.27
2018-06-18T04:47:49.007Z,19.25
2018-06-18T04:50:22.814Z,19.19
2018-06-18T04:52:52.076Z,19.13
2018-06-18T04:55:31.404Z,19.26
2018-06-18T04:57:59.967Z,19.37
2018-06-18T05:00:55.814Z,19.50
2018-06-18T05:03:24.503Z,19.44
2018-06-18T05:05:54.550Z,19.53
2018-06-18T05:08:37.091Z,19.52
2018-06-18T05:11:06.202Z,19.54
2018-06-18T05:13:35.772Z,19.51
2018-06-18T05:16:06.574Z,19.41
2018-06-18T05:18:35.074Z,19.50
2018-06-18T05:21:03.802Z,19.64
2018-06-18T05:23:33.718Z,19.80
2018-06-18T05:26:02.974Z,19.85
2018-06-18T05:28:32.200Z,19.82
2018-06-18T05:31:02.229Z,19.86
2018-06-18T05:33:31.122Z,19.93
2018-06-18T05:36:05.089Z,19.98
2018-06-18T05:38:36.942Z,19.99
2018-06-18T05:41:06.356Z,19.90
2018-06-18T05:43:35.520Z,19.89
2018-06-18T05:46:13.034Z,19.81
2018-06-18T05:48:44.882Z,19.75
2018-06-18T05:51:13.457Z,19.74
2018-06-18T05:53:43.776Z,19.65
2018-06-18T05:56:12.368Z,19.58
2018-06-18T05:58:41.510Z,19.61
2018-06-18T06:01:10.103Z,19.67
2018-06-18T06:03:38.590Z,19.67
2018-06-18T06:06:07.723Z,19.55
2018-06-18T06:08:36.242Z,19.52
2018-06-18T06:11:04.827Z,19.44
2018-06-18T06:13:33.603Z,19.54
2018-06-18T06:16:04.306Z,19.52
2018-06-18T06:18:32.914Z,19.54
2018-06-18T06:21:04.404Z,19.74
2018-06-18T06:23:36.671Z,19.85
2018-06-18T06:26:06.091Z,19.99
2018-06-18T06:28:35.048Z,20.12
2018-06-18T06:31:15.092Z,20.26
2018-06-18T06:33:44.134Z,20.53
2018-06-18T06:38:53.126Z,20.65
2018-06-18T06:41:24.451Z,20.62
2018-06-18T06:43:53.473Z,20.44
2018-06-18T06:46:21.990Z,20.53
2018-06-18T06:48:50.573Z,20.63
2018-06-18T06:51:21.358Z,20.75
2018-06-18T06:53:50.151Z,20.70
2018-06-18T06:56:18.660Z,20.73
2018-06-18T06:58:47.633Z,20.73
2018-06-18T07:01:16.164Z,20.78
2018-06-18T07:03:46.410Z,20.89
2018-06-18T07:06:17.965Z,20.87
2018-06-18T07:08:47.977Z,20.94
2018-06-18T07:11:20.043Z,20.99
2018-06-18T07:13:49.049Z,21.15
2018-06-18T07:16:18.714Z,21.20
2018-06-18T07:18:48.601Z,21.30
2018-06-18T07:21:17.537Z,21.30
2018-06-18T07:23:46.100Z,21.27
2018-06-18T07:26:14.594Z,21.25
2018-06-18T07:28:44.197Z,21.13
2018-06-18T07:31:18.328Z,21.15
2018-06-18T07:33:46.830Z,21.21
2018-06-18T07:36:17.747Z,21.15
2018-06-18T07:38:46.340Z,21.27
2018-06-18T07:41:14.886Z,21.36
2018-06-18T07:43:44.708Z,21.52
2018-06-18T07:46:14.882Z,21.60
2018-06-18T07:48:44.716Z,21.57
2018-06-18T07:51:13.511Z,21.63
2018-06-18T07:53:42.262Z,21.82
2018-06-18T07:56:11.979Z,21.78
2018-06-18T07:58:41.803Z,21.93
2018-06-18T08:01:10.313Z,22.13
2018-06-18T08:03:38.898Z,22.26
2018-06-18T08:06:07.786Z,22.20
2018-06-18T08:08:36.326Z,22.09
2018-06-18T08:11:05.876Z,22.16
2018-06-18T08:13:34.727Z,22.00
2018-06-18T08:16:04.399Z,22.10
2018-06-18T08:18:32.967Z,22.20
2018-06-18T08:21:01.868Z,22.07
2018-06-18T08:23:30.467Z,22.08
2018-06-18T08:25:59.454Z,22.26
2018-06-18T08:28:28.276Z,22.14
2018-06-18T08:30:56.935Z,22.18
2018-06-18T08:33:25.660Z,22.31
2018-06-18T08:35:54.539Z,22.45
2018-06-18T08:38:23.082Z,22.75
2018-06-18T08:40:51.619Z,23.08
2018-06-18T08:43:20.481Z,23.30
2018-06-18T08:45:49.339Z,23.40
2018-06-18T08:48:27.939Z,23.36
2018-06-18T08:51:02.573Z,23.39
2018-06-18T08:53:36.244Z,23.44
2018-06-18T08:56:11.114Z,23.56
2018-06-18T08:58:47.158Z,23.57
2018-06-18T09:01:21.411Z,23.75
2018-06-18T09:03:52.658Z,23.87
2018-06-18T09:06:21.446Z,23.92
2018-06-18T09:08:56.752Z,23.40
2018-06-18T09:11:25.682Z,23.30
2018-06-18T09:13:54.345Z,23.52
2018-06-18T09:16:23.170Z,23.62
2018-06-18T09:18:51.866Z,23.83
2018-06-18T09:21:20.393Z,24.14
2018-06-18T09:23:49.531Z,24.43
2018-06-18T09:26:20.668Z,24.60
2018-06-18T09:28:49.245Z,24.07
2018-06-18T09:31:18.037Z,24.08
2018-06-18T09:33:47.034Z,23.99
2018-06-18T09:36:15.505Z,23.95
2018-06-18T09:38:45.162Z,24.07
2018-06-18T09:43:47.035Z,23.73
2018-06-18T09:46:15.598Z,23.81
2018-06-18T09:48:52.719Z,23.95
2018-06-18T09:51:35.159Z,24.12
2018-06-18T09:54:18.378Z,24.27
2018-06-18T09:56:52.389Z,24.66
2018-06-18T09:59:39.784Z,24.33
2018-06-18T10:02:11.341Z,24.76
2018-06-18T10:04:39.863Z,25.07
2018-06-18T10:07:08.345Z,24.87
2018-06-18T10:09:37.288Z,25.04
2018-06-18T10:12:05.837Z,25.11
2018-06-18T10:14:40.142Z,25.28
2018-06-18T10:17:08.675Z,25.49
2018-06-18T10:19:40.824Z,25.70
2018-06-18T10:22:09.768Z,25.58
2018-06-18T10:24:38.311Z,25.70
2018-06-18T10:27:13.883Z,25.45
2018-06-18T10:29:42.978Z,25.51
2018-06-18T10:32:16.614Z,25.75
2018-06-18T10:34:52.742Z,26.26
2018-06-18T10:37:26.783Z,26.51
2018-06-18T10:42:02.902Z,26.52
2018-06-18T10:44:32.030Z,26.58
2018-06-18T10:47:00.531Z,26.21
2018-06-18T10:49:29.112Z,26.05
2018-06-18T10:52:04.871Z,25.89
2018-06-18T10:54:33.467Z,25.85
2018-06-18T10:57:04.160Z,25.64
2018-06-18T10:59:32.870Z,25.58
2018-06-18T11:02:01.765Z,25.96
2018-06-18T11:04:36.395Z,26.30
2018-06-18T11:07:05.271Z,26.29
2018-06-18T11:09:36.417Z,26.11
2018-06-18T11:12:06.661Z,25.63
2018-06-18T11:14:35.474Z,25.35
2018-06-18T11:17:09.875Z,25.68
2018-06-18T11:19:43.602Z,25.71
2018-06-18T11:22:14.129Z,25.44
2018-06-18T11:24:48.649Z,25.39
2018-06-18T11:27:17.447Z,25.60
2018-06-18T11:29:51.522Z,25.76
2018-06-18T11:32:20.113Z,25.84
2018-06-18T11:34:48.650Z,26.27
2018-06-18T11:37:17.460Z,26.61
2018-06-18T11:39:51.430Z,26.34
2018-06-18T11:42:20.013Z,25.79
2018-06-18T11:44:48.919Z,26.00
2018-06-18T11:47:17.555Z,25.58
2018-06-18T11:49:46.174Z,25.24
2018-06-18T11:52:18.100Z,24.99
2018-06-18T11:54:46.627Z,24.87
2018-06-18T11:57:15.139Z,25.07
2018-06-18T11:59:50.158Z,25.25
2018-06-18T12:02:24.017Z,25.19
2018-06-18T12:04:57.809Z,25.14
2018-06-18T12:07:31.653Z,24.87
2018-06-18T12:10:00.292Z,24.92
2018-06-18T12:12:35.116Z,25.02
2018-06-18T12:15:04.111Z,25.02
2018-06-18T12:17:32.693Z,25.15
2018-06-18T12:20:03.242Z,24.95
2018-06-18T12:22:31.799Z,24.90
2018-06-18T12:25:01.161Z,24.74
2018-06-18T12:27:32.218Z,24.98
2018-06-18T12:30:00.886Z,25.28
2018-06-18T12:32:29.404Z,25.30
2018-06-18T12:34:59.280Z,25.32
2018-06-18T12:37:27.776Z,25.32
2018-06-18T12:39:59.719Z,25.12
2018-06-18T12:42:28.485Z,25.12
2018-06-18T12:45:03.532Z,25.40
2018-06-18T12:47:37.218Z,25.45
2018-06-18T12:50:12.300Z,25.68
2018-06-18T12:52:49.255Z,25.54
2018-06-18T12:55:26.463Z,25.49
2018-06-18T12:57:55.680Z,25.81
2018-06-18T13:00:28.703Z,25.88
2018-06-18T13:03:03.982Z,26.31
2018-06-18T13:05:33.368Z,26.68
2018-06-18T13:08:05.453Z,26.55
2018-06-18T13:10:34.122Z,26.96
2018-06-18T13:13:03.205Z,26.91
2018-06-18T13:15:34.225Z,27.34
2018-06-18T13:18:03.296Z,27.29
2018-06-18T13:20:32.109Z,27.64
2018-06-18T13:23:01.052Z,27.84
2018-06-18T13:25:29.623Z,28.23
2018-06-18T13:28:05.750Z,27.81
2018-06-18T13:30:42.325Z,27.43
2018-06-18T13:33:11.774Z,27.96
2018-06-18T13:35:40.372Z,28.25
2018-06-18T13:38:14.070Z,28.79
2018-06-18T13:40:50.715Z,30.89
2018-06-18T13:43:26.068Z,31.29
2018-06-18T13:46:00.424Z,33.14
2018-06-18T13:48:34.215Z,31.11
2018-06-18T13:51:02.883Z,29.83
2018-06-18T13:53:38.590Z,28.97
2018-06-18T13:56:07.197Z,28.42
2018-06-18T13:58:35.935Z,28.59
2018-06-18T14:01:05.157Z,28.80
2018-06-18T14:03:33.707Z,28.85
2018-06-18T14:06:05.110Z,28.68
2018-06-18T14:08:39.428Z,28.89
2018-06-18T14:11:08.071Z,29.04
2018-06-18T14:13:37.993Z,29.15
2018-06-18T14:16:06.599Z,29.35
2018-06-18T14:18:35.110Z,29.78
2018-06-18T14:21:04.152Z,29.78
2018-06-18T14:23:35.611Z,31.23
2018-06-18T14:26:05.410Z,31.41
2018-06-18T14:28:34.242Z,30.10
2018-06-18T14:31:07.853Z,29.49
2018-06-18T14:33:41.480Z,29.64
2018-06-18T14:36:15.680Z,28.55
2018-06-18T14:38:49.667Z,29.15
2018-06-18T14:41:18.574Z,28.52
2018-06-18T14:43:52.159Z,28.71
2018-06-18T14:46:20.816Z,29.42
2018-06-18T14:48:55.313Z,29.81
2018-06-18T14:51:23.935Z,29.29
2018-06-18T14:53:52.555Z,28.97
2018-06-18T14:56:29.818Z,28.44
2018-06-18T14:59:07.813Z,28.06
2018-06-18T15:01:36.743Z,27.76
2018-06-18T15:04:14.322Z,27.57
2018-06-18T15:06:44.121Z,27.72
2018-06-18T15:09:13.274Z,27.39
2018-06-18T15:11:42.485Z,26.96
2018-06-18T15:14:11.438Z,26.60
2018-06-18T15:16:39.959Z,26.98
2018-06-18T15:19:08.774Z,27.35
2018-06-18T15:21:40.846Z,27.49
2018-06-18T15:24:17.117Z,27.63
2018-06-18T15:26:47.138Z,28.07
2018-06-18T15:29:19.838Z,28.12
2018-06-18T15:31:48.772Z,28.15
2018-06-18T15:34:17.771Z,28.22
2018-06-18T15:36:46.731Z,28.23
2018-06-18T15:39:19.111Z,28.25
2018-06-18T15:41:48.082Z,28.17
2018-06-18T15:44:16.746Z,28.11
2018-06-18T15:46:45.949Z,27.70
2018-06-18T15:49:14.821Z,27.55
2018-06-18T15:51:43.619Z,27.06
2018-06-18T15:54:12.206Z,26.80
2018-06-18T15:56:42.266Z,26.79
2018-06-18T15:59:10.741Z,26.68
2018-06-18T16:01:39.269Z,26.64
2018-06-18T16:04:08.095Z,26.46
2018-06-18T16:07:06.779Z,26.48
2018-06-18T16:09:43.144Z,26.31
2018-06-18T16:12:11.755Z,26.05
2018-06-18T16:14:41.435Z,25.97
2018-06-18T16:20:05.174Z,25.89
2018-06-18T16:22:34.020Z,25.97
2018-06-18T16:25:06.898Z,25.74
2018-06-18T16:27:35.316Z,25.82
2018-06-18T16:30:13.606Z,25.75
2018-06-18T16:32:53.015Z,25.75
2018-06-18T16:35:22.194Z,25.75
2018-06-18T16:37:50.746Z,25.69
2018-06-18T16:40:19.318Z,25.41
2018-06-18T16:42:48.123Z,25.25
2018-06-18T16:45:20.702Z,25.16
2018-06-18T16:47:49.338Z,25.30
2018-06-18T16:50:18.160Z,25.27
2018-06-18T16:52:46.593Z,25.26
2018-06-18T16:55:18.731Z,25.20
2018-06-18T16:57:47.531Z,25.06
2018-06-18T17:00:16.766Z,25.04
2018-06-18T17:02:45.805Z,25.11
2018-06-18T17:05:14.296Z,25.26
2018-06-18T17:07:43.030Z,25.45
2018-06-18T17:10:11.585Z,25.25
2018-06-18T17:12:42.065Z,25.19
2018-06-18T17:15:10.852Z,25.03
2018-06-18T17:17:39.364Z,25.05
2018-06-18T17:20:11.412Z,25.12
2018-06-18T17:22:40.265Z,25.19
2018-06-18T17:25:08.915Z,25.29
2018-06-18T17:27:37.382Z,25.34
2018-06-18T17:30:06.215Z,25.38
2018-06-18T17:32:45.527Z,25.50
2018-06-18T17:35:14.944Z,25.63
2018-06-18T17:37:44.382Z,25.76
2018-06-18T17:40:12.880Z,25.68
2018-06-18T17:42:41.616Z,25.70
2018-06-18T17:45:10.600Z,25.39
2018-06-18T17:47:39.493Z,25.37
2018-06-18T17:50:09.968Z,25.42
2018-06-18T17:52:38.921Z,25.16
2018-06-18T17:55:14.988Z,25.19
2018-06-18T17:57:43.706Z,25.08
2018-06-18T18:00:13.031Z,24.79
2018-06-18T18:02:42.489Z,24.89
2018-06-18T18:05:11.114Z,24.89
2018-06-18T18:07:40.010Z,24.88
2018-06-18T18:10:08.665Z,24.72
2018-06-18T18:12:37.158Z,24.66
2018-06-18T18:15:09.646Z,24.51
2018-06-18T18:17:38.157Z,24.46
2018-06-18T18:20:10.805Z,24.43
2018-06-18T18:22:42.162Z,24.40
2018-06-18T18:25:10.696Z,24.20
2018-06-18T18:27:39.206Z,24.19
2018-06-18T18:30:08.400Z,24.16
2018-06-18T18:39:22.787Z,24.12
2018-06-18T18:41:54.844Z,24.06
2018-06-18T18:44:23.404Z,24.08
2018-06-18T18:46:53.629Z,24.02
2018-06-18T18:49:22.601Z,23.92
2018-06-18T18:51:51.192Z,23.87
2018-06-18T18:54:34.492Z,23.78
2018-06-18T18:58:12.812Z,23.76
2018-06-18T19:00:41.559Z,23.76
2018-06-18T19:03:10.478Z,23.76
2018-06-18T19:05:38.993Z,23.69
2018-06-18T19:08:08.327Z,23.78
2018-06-18T19:10:38.622Z,23.80
2018-06-18T19:13:18.136Z,23.88
2018-06-18T19:15:54.114Z,23.91
2018-06-18T19:18:22.826Z,23.93
2018-06-18T19:20:56.942Z,23.92
2018-06-18T19:23:32.377Z,23.82
2018-06-18T19:26:01.095Z,23.73
2018-06-18T19:28:29.637Z,23.66
2018-06-18T19:31:08.740Z,23.64
2018-06-18T19:34:14.438Z,23.50
2018-06-18T19:36:46.834Z,23.43
2018-06-18T19:39:16.462Z,23.36
2018-06-18T19:41:45.317Z,23.36
2018-06-18T19:44:14.363Z,23.27
2018-06-18T19:47:07.611Z,23.16
2018-06-18T19:49:39.983Z,23.11
2018-06-18T19:52:08.775Z,23.06
2018-06-18T19:54:40.643Z,23.04
2018-06-18T19:57:09.619Z,22.97
2018-06-18T19:59:38.101Z,22.91
2018-06-18T20:04:46.507Z,22.90
2018-06-18T20:07:15.166Z,22.88
2018-06-18T20:09:43.812Z,22.82
2018-06-18T20:12:12.702Z,22.72
2018-06-18T20:17:15.345Z,22.72
2018-06-18T20:19:44.660Z,22.70
2018-06-18T20:22:13.281Z,22.65
2018-06-18T20:24:43.818Z,22.71
2018-06-18T20:27:12.603Z,22.73
2018-06-18T20:29:46.978Z,22.72
2018-06-18T20:32:16.177Z,22.70
2018-06-18T20:34:45.058Z,22.74
2018-06-18T20:37:13.658Z,22.70
2018-06-18T20:39:42.590Z,22.70
2018-06-18T20:42:11.898Z,22.78
2018-06-18T20:44:40.416Z,22.76
2018-06-18T20:47:09.372Z,22.80
2018-06-18T20:49:43.964Z,22.75
2018-06-18T20:52:12.627Z,22.72
2018-06-18T20:54:41.800Z,22.69
2018-06-18T20:57:10.398Z,22.75
2018-06-18T20:59:38.921Z,22.77
2018-06-18T21:02:07.966Z,22.79
2018-06-18T21:04:36.596Z,22.73
2018-06-18T21:07:06.066Z,22.70
2018-06-18T21:09:34.926Z,22.70
2018-06-18T21:12:04.566Z,22.66
2018-06-18T21:14:33.076Z,22.67
2018-06-18T21:17:03.060Z,22.68
2018-06-18T21:19:32.394Z,22.72
2018-06-18T21:22:11.884Z,22.65
2018-06-18T21:24:41.328Z,22.57
2018-06-18T21:27:09.947Z,22.56
2018-06-18T21:29:38.524Z,22.53
2018-06-18T21:32:07.514Z,22.50
2018-06-18T21:34:41.713Z,22.48
2018-06-18T21:37:10.262Z,22.45
2018-06-18T21:39:39.180Z,22.44
2018-06-18T21:42:07.727Z,22.44
2018-06-18T21:44:49.757Z,22.40
2018-06-18T21:47:18.554Z,22.39
2018-06-18T21:49:48.261Z,22.37
2018-06-18T21:52:23.421Z,22.39
2018-06-18T21:54:52.289Z,22.42
2018-06-18T21:57:20.915Z,22.47
2018-06-18T21:59:49.735Z,22.48
2018-06-18T22:02:18.854Z,22.44
2018-06-18T22:04:49.626Z,22.37
2018-06-18T22:07:19.802Z,22.36
2018-06-18T22:09:48.749Z,22.37
2018-06-18T22:12:28.513Z,22.29
2018-06-18T22:14:57.591Z,22.29
2018-06-18T22:17:26.276Z,22.21
2018-06-18T22:19:59.767Z,22.17
2018-06-18T22:22:28.798Z,22.17
2018-06-18T22:24:57.379Z,22.19
2018-06-18T22:27:25.961Z,22.12
2018-06-18T22:29:57.364Z,22.10
2018-06-18T22:32:25.929Z,22.06
2018-06-18T22:34:58.467Z,22.09
2018-06-18T22:37:26.964Z,22.06
2018-06-18T22:39:56.981Z,22.10
2018-06-18T22:42:25.505Z,22.05
2018-06-18T22:44:58.352Z,22.11
2018-06-18T22:47:27.219Z,22.09
2018-06-18T22:49:55.803Z,22.12
2018-06-18T22:52:24.341Z,22.12
2018-06-18T22:54:53.418Z,22.10
2018-06-18T22:57:22.081Z,22.12
2018-06-18T22:59:59.771Z,22.10
2018-06-18T23:02:30.634Z,22.14
2018-06-18T23:05:04.149Z,22.15
2018-06-18T23:07:33.146Z,22.15
2018-06-18T23:12:43.160Z,22.20
2018-06-18T23:18:45.528Z,22.20
2018-06-18T23:21:15.000Z,22.21
2018-06-18T23:23:43.556Z,22.24
2018-06-18T23:26:12.168Z,22.28
2018-06-18T23:28:50.699Z,22.23
2018-06-18T23:31:19.230Z,22.20
2018-06-18T23:33:52.479Z,22.17
2018-06-18T23:36:21.648Z,22.19
2018-06-18T23:38:53.922Z,22.21
2018-06-18T23:41:23.937Z,22.16
2018-06-18T23:43:56.048Z,21.96
2018-06-18T23:46:24.530Z,21.96
2018-06-18T23:48:54.948Z,22.00
2018-06-18T23:51:23.432Z,21.79
2018-06-18T23:53:51.978Z,21.72
2018-06-18T23:56:21.970Z,21.61
2018-06-18T23:58:50.666Z,21.58
